Time;durP1;ratioP1;P1;durP2;ratioP2;P2;SDS_P1;SDS_P2;PMS_P1;PMS_P2;Temp;Humidity;BMP_temperature;BMP_pressure;BME280_temperature;BME280_humidity;BME280_pressure;Samples;Min_cycle;Max_cycle;Signal;HPM_P1;HPM_P2
2024/02/18 00:02:42;;;;;;;;;;;;;;;;;;;;;
2024/02/18 00:09:18;;;;;;;0.00;0.00;;;;;;;10.23;100.00;101383.16;6103886;23;20024;-77
2024/02/18 00:11:49;;;;;;;0.00;0.00;;;;;;;10.10;100.00;101358.84;6123508;23;20421;-78
2024/02/18 00:14:15;;;;;;;0.00;0.00;;;;;;;10.19;100.00;101379.28;6129967;23;20005;-76
2024/02/18 00:16:41;;;;;;;0.00;0.00;;;;;;;10.23;100.00;101377.69;6167770;23;20340;-78
2024/02/18 00:19:08;;;;;;;0.00;0.00;;;;;;;10.06;100.00;101355.75;6198915;23;19992;-78
2024/02/18 00:21:37;;;;;;;0.00;0.00;;;;;;;10.14;100.00;101362.75;6250199;23;20004;-75
2024/02/18 00:24:06;;;;;;;0.10;0.10;;;;;;;10.17;100.00;101364.19;6222803;23;20019;-78
2024/02/18 00:26:31;;;;;;;0.00;0.00;;;;;;;10.29;100.00;101387.69;6226447;23;20000;-78
2024/02/18 00:29:11;;;;;;;0.00;0.00;;;;;;;10.09;100.00;101346.22;6218927;23;20031;-78
2024/02/18 00:32:04;;;;;;;0.00;0.00;;;;;;;10.29;100.00;101375.91;6196020;23;20008;-80
2024/02/18 00:34:30;;;;;;;0.00;0.00;;;;;;;10.17;100.00;101347.78;6201257;23;20008;-77
2024/02/18 00:36:56;;;;;;;0.00;0.00;;;;;;;10.05;100.00;101336.88;6176259;23;20078;-78
2024/02/18 00:39:21;;;;;;;0.00;0.00;;;;;;;10.16;100.00;101337.91;6221782;23;20008;-79
2024/02/18 00:42:03;;;;;;;0.00;0.00;;;;;;;10.18;100.00;101335.75;6175287;23;20004;-78
2024/02/18 00:44:34;;;;;;;0.00;0.00;;;;;;;10.17;100.00;101336.84;6228682;23;20004;-75
2024/02/18 00:47:00;;;;;;;0.00;0.00;;;;;;;10.07;100.00;101330.06;6212731;23;20015;-77
2024/02/18 00:49:26;;;;;;;0.00;0.00;;;;;;;10.18;100.00;101344.81;6232114;23;20056;-77
2024/02/18 00:51:57;;;;;;;0.00;0.00;;;;;;;10.10;100.00;101315.97;6207367;23;20004;-76
2024/02/18 00:54:23;;;;;;;0.10;0.10;;;;;;;10.16;100.00;101330.53;6229555;23;20118;-78
2024/02/18 00:57:29;;;;;;;0.00;0.00;;;;;;;10.16;100.00;101324.25;6225060;23;20319;-77
2024/02/18 01:00:10;;;;;;;0.00;0.00;;;;;;;9.95;100.00;101280.91;6191949;23;20740;-77
2024/02/18 01:02:43;;;;;;;0.00;0.00;;;;;;;9.95;100.00;101278.19;6225262;23;20000;-77
2024/02/18 01:05:12;;;;;;;0.10;0.10;;;;;;;9.91;100.00;101260.59;6225871;23;19988;-77
2024/02/18 01:07:37;;;;;;;0.00;0.00;;;;;;;9.94;100.00;101267.50;6204279;23;20012;-79
2024/02/18 01:10:06;;;;;;;0.00;0.00;;;;;;;10.00;100.00;101279.38;6254385;23;20410;-78
2024/02/18 01:12:44;;;;;;;0.00;0.00;;;;;;;10.15;100.00;101304.28;6198635;23;20012;-76
2024/02/18 01:15:10;;;;;;;0.00;0.00;;;;;;;10.07;100.00;101285.53;6200763;23;20012;-77
2024/02/18 01:17:35;;;;;;;0.00;0.00;;;;;;;10.05;100.00;101283.03;6224632;23;20016;-76
2024/02/18 01:20:16;;;;;;;;;;;;;;;;;;;;;
2024/02/18 01:22:42;;;;;;;0.10;0.10;;;;;;;9.92;100.00;101245.88;6226875;23;20499;-77
2024/02/18 01:28:08;;;;;;;0.00;0.00;;;;;;;10.20;100.00;101285.25;6210278;23;20031;-78
2024/02/18 01:30:36;;;;;;;0.00;0.00;;;;;;;10.00;100.00;101268.44;6222949;23;20004;-78
2024/02/18 01:33:05;;;;;;;0.00;0.00;;;;;;;9.94;100.00;101254.69;6222391;23;20354;-77
2024/02/18 01:35:30;;;;;;;0.10;0.10;;;;;;;9.98;100.00;101248.72;6222521;23;20083;-77
2024/02/18 01:37:56;;;;;;;0.00;0.00;;;;;;;10.20;100.00;101281.69;6220765;23;20489;-77
2024/02/18 01:40:21;;;;;;;0.00;0.00;;;;;;;10.13;100.00;101262.69;6222345;23;20007;-76
2024/02/18 01:42:47;;;;;;;0.10;0.10;;;;;;;10.13;100.00;101246.28;6194257;23;20008;-76
2024/02/18 01:45:14;;;;;;;0.00;0.00;;;;;;;10.06;100.00;101237.41;6222975;23;20335;-79
2024/02/18 01:47:43;;;;;;;0.00;0.00;;;;;;;10.14;100.00;101247.97;6221311;23;20121;-76
2024/02/18 01:50:09;;;;;;;0.00;0.00;;;;;;;10.19;100.00;101247.22;6222572;23;20019;-76
2024/02/18 01:52:38;;;;;;;0.10;0.10;;;;;;;10.03;100.00;101214.16;6197759;23;20043;-76
2024/02/18 01:55:08;;;;;;;0.00;0.00;;;;;;;10.14;100.00;101250.69;6220434;23;19997;-77
2024/02/18 01:57:34;;;;;;;0.00;0.00;;;;;;;10.17;100.00;101238.44;6248815;23;20039;-77
2024/02/18 02:00:01;;;;;;;0.00;0.00;;;;;;;10.22;100.00;101249.47;6169951;23;20320;-78
2024/02/18 02:02:27;;;;;;;0.00;0.00;;;;;;;10.09;100.00;101215.06;6246034;23;20004;-78
2024/02/18 02:05:04;;;;;;;0.00;0.00;;;;;;;10.27;100.00;101238.66;6193799;23;20035;-77
2024/02/18 02:07:32;;;;;;;0.00;0.00;;;;;;;10.06;100.00;101197.25;6249316;23;19992;-79
2024/02/18 02:10:11;;;;;;;0.00;0.00;;;;;;;10.18;100.00;101210.88;6219711;23;20062;-78
2024/02/18 02:12:44;;;;;;;0.00;0.00;;;;;;;10.23;100.00;101210.97;6199411;23;20055;-78
2024/02/18 02:15:15;;;;;;;0.00;0.00;;;;;;;10.15;100.00;101205.91;6247992;23;20032;-77
2024/02/18 02:17:40;;;;;;;0.10;0.10;;;;;;;10.23;100.00;101202.75;6198356;23;20000;-79
2024/02/18 02:20:09;;;;;;;0.00;0.00;;;;;;;10.24;100.00;101212.63;6193402;23;20031;-78
2024/02/18 02:22:35;;;;;;;0.00;0.00;;;;;;;10.35;100.00;101215.59;6199956;23;20035;-78
2024/02/18 02:25:00;;;;;;;0.00;0.00;;;;;;;10.18;100.00;101183.53;6219186;23;19997;-78
2024/02/18 02:27:34;;;;;;;0.00;0.00;;;;;;;10.18;100.00;101183.53;6196442;23;20077;-77
2024/02/18 02:30:04;;;;;;;0.00;0.00;;;;;;;10.25;100.00;101199.78;6220934;23;19996;-77
2024/02/18 02:32:35;;;;;;;0.00;0.00;;;;;;;10.29;100.00;101190.88;6219705;23;20011;-78
2024/02/18 02:35:06;;;;;;;0.00;0.00;;;;;;;10.33;100.00;101201.31;6221614;23;20004;-77
2024/02/18 02:37:32;;;;;;;0.10;0.10;;;;;;;10.37;100.00;101197.03;6248189;23;20007;-77
2024/02/18 02:40:00;;;;;;;0.00;0.00;;;;;;;10.30;100.00;101176.09;6223278;23;20012;-78
2024/02/18 02:42:28;;;;;;;0.00;0.00;;;;;;;10.35;100.00;101182.78;6220765;23;20074;-77
2024/02/18 02:44:53;;;;;;;0.00;0.00;;;;;;;10.26;100.00;101164.00;6219771;23;20044;-77
2024/02/18 02:47:21;;;;;;;0.00;0.00;;;;;;;10.24;100.00;101157.97;6220518;23;20393;-77
2024/02/18 02:49:46;;;;;;;0.05;0.05;;;;;;;10.27;100.00;101157.47;6246207;23;20004;-77
2024/02/18 02:52:12;;;;;;;0.00;0.00;;;;;;;10.33;100.00;101157.56;6196962;23;19992;-75
2024/02/18 02:54:48;;;;;;;0.00;0.00;;;;;;;10.33;100.00;101168.50;6218549;23;20068;-76
2024/02/18 02:57:28;;;;;;;0.00;0.00;;;;;;;10.31;100.00;101161.38;6220848;23;20038;-77
2024/02/18 03:00:12;;;;;;;0.00;0.00;;;;;;;10.14;100.00;101116.78;6169374;23;20019;-77
2024/02/18 03:02:43;;;;;;;0.10;0.10;;;;;;;10.04;100.00;101100.19;6220338;23;20003;-76
2024/02/18 03:05:12;;;;;;;0.03;0.03;;;;;;;10.21;100.00;101122.09;6244590;23;20263;-77
2024/02/18 03:07:40;;;;;;;0.00;0.00;;;;;;;10.31;100.00;101128.56;6219662;23;20007;-76
2024/02/18 03:10:09;;;;;;;0.00;0.00;;;;;;;10.37;100.00;101139.63;6191108;23;20007;-76
2024/02/18 03:12:42;;;;;;;0.00;0.00;;;;;;;10.38;100.00;101127.59;6221156;23;20027;-74
2024/02/18 03:15:08;;;;;;;0.00;0.00;;;;;;;10.22;100.00;101099.13;6196633;23;20011;-77
2024/02/18 03:17:41;;;;;;;0.00;0.00;;;;;;;10.39;100.00;101124.63;6169727;23;20020;-76
2024/02/18 03:20:27;;;;;;;;;;;;;;;;;;;;;
2024/02/18 03:22:55;;;;;;;0.00;0.00;;;;;;;10.33;100.00;101102.88;6224039;23;20078;-76
2024/02/18 03:25:28;;;;;;;0.00;0.00;;;;;;;10.19;100.00;101081.34;6247077;23;20008;-75
2024/02/18 03:28:08;;;;;;;0.00;0.00;;;;;;;10.41;100.00;101110.69;6218951;23;20003;-76
2024/02/18 03:30:37;;;;;;;0.00;0.00;;;;;;;10.29;100.00;101092.47;6174527;23;20000;-76
2024/02/18 03:33:02;;;;;;;0.00;0.00;;;;;;;10.49;100.00;101115.75;6218307;22;20004;-76
2024/02/18 03:35:33;;;;;;;0.00;0.00;;;;;;;10.28;100.00;101076.31;6218315;23;20016;-77
2024/02/18 03:37:58;;;;;;;0.00;0.00;;;;;;;10.42;100.00;101085.03;6197807;23;20024;-76
2024/02/18 03:43:35;;;;;;;0.00;0.00;;;;;;;10.50;100.00;101095.56;6225601;23;20004;-77
2024/02/18 03:49:09;;;;;;;0.10;0.10;;;;;;;10.16;100.00;101038.09;6218210;23;20018;-76
2024/02/18 03:52:05;;;;;;;;;;;;;;;;;;;;;
2024/02/18 03:55:25;;;;;;;0.00;0.00;;;;;;;10.28;100.00;101062.63;6251158;23;20020;-77
2024/02/18 03:58:02;;;;;;;0.00;0.00;;;;;;;10.54;100.00;101098.59;6218704;23;20010;-77
2024/02/18 04:00:50;;;;;;;0.00;0.00;;;;;;;10.28;100.00;101060.72;6218558;23;20221;-76
2024/02/18 04:03:23;;;;;;;0.00;0.00;;;;;;;10.47;100.00;101076.91;6047438;23;20066;-77
2024/02/18 04:05:52;;;;;;;0.00;0.00;;;;;;;10.21;100.00;101029.16;6072298;23;20088;-78
2024/02/18 04:08:18;;;;;;;0.00;0.00;;;;;;;10.45;100.00;101062.66;6207083;23;20008;-77
2024/02/18 04:11:11;;;;;;;;;;;;;;;;;;;;;
2024/02/18 04:13:37;;;;;;;0.00;0.00;;;;;;;10.59;100.00;101074.09;6248281;23;20023;-74
2024/02/18 04:16:17;;;;;;;;;;;;;;;;;;;;;
2024/02/18 04:18:50;;;;;;;0.00;0.00;;;;;;;10.45;100.00;101029.84;6247295;23;20083;-76
2024/02/18 04:21:24;;;;;;;0.00;0.00;;;;;;;10.33;100.00;101020.88;6218323;23;19996;-76
2024/02/18 04:23:50;;;;;;;;;;;;;;;10.60;100.00;101042.91;6222642;23;20040;-75
2024/02/18 04:26:16;;;;;;;0.00;0.00;;;;;;;10.59;100.00;101041.25;6219179;23;19910;-75
2024/02/18 04:28:43;;;;;;;0.00;0.00;;;;;;;10.52;100.00;101024.19;6189913;23;20331;-77
2024/02/18 04:31:09;;;;;;;0.00;0.00;;;;;;;10.67;100.00;101042.72;6221794;23;20005;-76
2024/02/18 04:33:34;;;;;;;0.00;0.00;;;;;;;10.45;100.00;101007.97;6192178;23;20737;-75
2024/02/18 04:36:00;;;;;;;0.00;0.00;;;;;;;10.56;100.00;101020.72;6221871;23;20004;-75
2024/02/18 04:38:25;;;;;;;0.00;0.00;;;;;;;10.58;100.00;101024.00;6216281;23;20053;-75
2024/02/18 04:40:55;;;;;;;0.00;0.00;;;;;;;10.65;100.00;101019.19;6170990;23;20012;-75
2024/02/18 04:43:20;;;;;;;0.00;0.00;;;;;;;10.57;100.00;101011.44;6247701;23;20008;-74
2024/02/18 04:45:47;;;;;;;0.00;0.00;;;;;;;10.47;100.00;100995.69;6245185;23;20028;-75
2024/02/18 04:48:12;;;;;;;0.00;0.00;;;;;;;10.67;100.00;101026.31;6194917;23;20012;-75
2024/02/18 04:50:40;;;;;;;0.00;0.00;;;;;;;10.73;100.00;101037.09;6168306;23;20000;-74
2024/02/18 04:53:08;;;;;;;0.00;0.00;;;;;;;10.75;100.00;101048.59;6221407;23;20004;-75
2024/02/18 04:55:35;;;;;;;0.00;0.00;;;;;;;10.63;100.00;101021.34;6217442;23;20006;-76
2024/02/18 04:58:01;;;;;;;0.00;0.00;;;;;;;10.77;100.00;101042.88;6222299;23;20027;-77
2024/02/18 05:00:26;;;;;;;0.00;0.00;;;;;;;10.67;100.00;101029.88;6170982;23;20009;-75
2024/02/18 05:02:52;;;;;;;0.10;0.10;;;;;;;10.63;100.00;101010.41;6195172;23;20012;-75
2024/02/18 05:05:18;;;;;;;0.00;0.00;;;;;;;10.68;100.00;101017.03;6248295;23;20004;-74
2024/02/18 05:07:53;;;;;;;0.00;0.00;;;;;;;10.79;100.00;101035.22;6246991;22;19980;-75
2024/02/18 05:10:21;;;;;;;0.00;0.00;;;;;;;10.87;100.00;101047.66;6196816;23;19989;-74
2024/02/18 05:12:49;;;;;;;0.00;0.00;;;;;;;10.59;100.00;101014.72;6219333;22;20008;-76
2024/02/18 05:15:24;;;;;;;0.00;0.00;;;;;;;10.55;100.00;101002.63;6222067;23;20008;-76
2024/02/18 05:17:50;;;;;;;0.00;0.00;;;;;;;10.65;100.00;101027.38;6200388;23;20054;-77
2024/02/18 05:20:20;;;;;;;0.00;0.00;;;;;;;10.64;100.00;101028.50;6218317;23;20000;-76
2024/02/18 05:22:54;;;;;;;0.00;0.00;;;;;;;10.84;100.00;101076.34;6166128;23;20091;-75
2024/02/18 05:25:30;;;;;;;0.00;0.00;;;;;;;10.60;100.00;101031.97;6192588;23;20040;-76
2024/02/18 05:27:58;;;;;;;0.00;0.00;;;;;;;10.70;100.00;101055.91;6215758;23;20000;-76
2024/02/18 05:30:23;;;;;;;0.00;0.00;;;;;;;10.58;100.00;101045.06;6193286;23;20007;-77
2024/02/18 05:32:49;;;;;;;0.00;0.00;;;;;;;10.75;100.00;101072.41;6193530;23;20001;-76
2024/02/18 05:35:14;;;;;;;0.00;0.00;;;;;;;10.75;100.00;101069.66;6188213;23;20489;-76
2024/02/18 05:37:40;;;;;;;0.00;0.00;;;;;;;10.79;100.00;101073.53;6192600;23;20016;-76
2024/02/18 05:40:06;;;;;;;0.00;0.00;;;;;;;10.87;100.00;101075.84;6214718;23;20009;-76
2024/02/18 05:42:32;;;;;;;0.00;0.00;;;;;;;10.90;100.00;101069.88;6217627;23;20015;-76
2024/02/18 05:44:57;;;;;;;0.00;0.00;;;;;;;10.82;100.00;101056.63;6188632;23;20503;-76
2024/02/18 05:47:23;;;;;;;0.00;0.00;;;;;;;10.88;100.00;101072.03;6191837;23;20011;-75
2024/02/18 05:50:03;;;;;;;;;;;;;;;;;;;;;
2024/02/18 05:53:07;;;;;;;0.00;0.00;;;;;;;10.88;100.00;101065.72;6219516;23;20388;-77
2024/02/18 05:55:36;;;;;;;0.00;0.00;;;;;;;10.68;100.00;101038.94;6179235;23;20016;-75
2024/02/18 05:58:11;;;;;;;0.00;0.00;;;;;;;10.73;100.00;101036.25;6191976;23;20005;-75
2024/02/18 06:00:40;;;;;;;0.00;0.00;;;;;;;10.69;100.00;101024.16;6165746;23;20062;-76
2024/02/18 06:03:12;;;;;;;0.00;0.00;;;;;;;10.68;100.00;101042.47;6191118;23;20021;-75
2024/02/18 06:05:38;;;;;;;0.00;0.00;;;;;;;10.85;100.00;101067.06;6188803;23;20008;-76
2024/02/18 06:08:06;;;;;;;0.00;0.00;;;;;;;10.69;100.00;101029.63;6215269;23;20059;-76
2024/02/18 06:10:34;;;;;;;0.00;0.00;;;;;;;10.73;100.00;101038.97;6164534;23;20129;-75
2024/02/18 06:13:36;;;;;;;0.00;0.00;;;;;;;10.72;100.00;101045.53;6187345;23;20020;-76
2024/02/18 06:16:57;;;;;;;;;;;;;;;;;;;;;
2024/02/18 06:22:47;;;;;;;0.00;0.00;;;;;;;10.59;100.00;101003.78;6098421;23;20018;-76
2024/02/18 06:25:35;;;;;;;0.00;0.00;;;;;;;10.61;100.00;101020.75;6171886;23;20013;-75
2024/02/18 06:28:10;;;;;;;0.00;0.00;;;;;;;10.53;100.00;101020.38;6215266;23;20012;-75
2024/02/18 06:30:39;;;;;;;0.00;0.00;;;;;;;10.61;100.00;101028.97;6217567;23;20004;-75
2024/02/18 06:33:29;;;;;;;0.00;0.00;;;;;;;10.80;100.00;101037.72;6186720;23;20011;-76
2024/02/18 06:35:51;;;;;;;0.10;0.10;;;;;;;10.80;100.00;101015.00;6214193;23;20005;-76
2024/02/18 06:38:19;;;;;;;0.00;0.00;;;;;;;10.81;100.00;101011.22;6187442;23;20001;-75
2024/02/18 06:40:45;;;;;;;0.00;0.00;;;;;;;10.61;100.00;100966.06;6189893;23;20000;-76
2024/02/18 06:43:10;;;;;;;0.00;0.00;;;;;;;10.79;100.00;100992.31;6162697;23;20000;-75
2024/02/18 06:45:36;;;;;;;0.10;0.10;;;;;;;10.75;100.00;100990.34;6169660;23;20019;-75
2024/02/18 06:48:01;;;;;;;0.00;0.00;;;;;;;10.62;100.00;100943.13;6193173;23;20062;-75
2024/02/18 06:50:32;;;;;;;0.00;0.00;;;;;;;10.71;100.00;100923.53;6189738;23;20012;-76
2024/02/18 06:52:58;;;;;;;0.00;0.00;;;;;;;10.77;100.00;100911.56;6192470;23;20010;-76
2024/02/18 06:55:28;;;;;;;0.00;0.00;;;;;;;10.63;100.00;100938.47;6188289;23;20005;-75
2024/02/18 06:57:56;;;;;;;0.00;0.00;;;;;;;10.62;100.00;100954.06;6219941;23;20008;-76
2024/02/18 07:00:32;;;;;;;0.00;0.00;;;;;;;10.66;100.00;100979.00;6162865;23;20013;-75
2024/02/18 07:03:06;;;;;;;0.10;0.10;;;;;;;10.58;100.00;100971.22;6142155;23;20487;-75
2024/02/18 07:05:31;;;;;;;0.00;0.00;;;;;;;10.69;100.00;100999.53;6217672;23;20017;-75
2024/02/18 07:08:06;;;;;;;0.10;0.10;;;;;;;10.55;100.00;101007.28;6217505;23;20001;-76
2024/02/18 07:10:34;;;;;;;0.00;0.00;;;;;;;10.65;100.00;101041.06;6190213;23;20019;-77
2024/02/18 07:13:02;;;;;;;0.00;0.00;;;;;;;10.40;100.00;100991.50;6163985;23;20019;-73
2024/02/18 07:15:40;;;;;;;0.00;0.00;;;;;;;10.53;100.00;101021.22;6188862;23;19997;-75
2024/02/18 07:18:06;;;;;;;0.00;0.00;;;;;;;10.64;100.00;101033.13;6206744;23;20020;-75
2024/02/18 07:20:32;;;;;;;0.00;0.00;;;;;;;10.69;100.00;101040.56;6194023;23;20004;-74
2024/02/18 07:22:59;;;;;;;0.00;0.00;;;;;;;10.87;100.00;101053.16;6216875;23;20111;-74
2024/02/18 07:25:50;;;;;;;;;;;;;;;;;;;;;
2024/02/18 07:28:35;;;;;;;0.00;0.00;;;;;;;10.64;100.00;101023.03;6221838;23;20075;-75
2024/02/18 08:06:49;;;;;;;0.00;0.00;;;;;;;10.64;100.00;101072.25;5815619;24;20010;-75
2024/02/18 08:10:01;;;;;;;0.00;0.00;;;;;;;10.77;100.00;101083.91;5962458;24;20016;-75
2024/02/18 08:16:27;;;;;;;;;;;;;;;;;;;;;
2024/02/18 08:19:04;;;;;;;;;;;;;;;;;;;;;
2024/02/18 08:22:00;;;;;;;;;;;;;;;;;;;;;
2024/02/18 08:25:00;;;;;;;0.00;0.00;;;;;;;10.96;100.00;101100.88;6095201;23;20045;-74
2024/02/18 08:31:39;;;;;;;;;;;;;;;;;;;;;
2024/02/18 08:35:03;;;;;;;;;;;;;;;;;;;;;
2024/02/18 08:42:08;;;;;;;0.00;0.00;;;;;;;11.32;100.00;101126.81;5886837;24;20018;-74
2024/02/18 08:48:56;;;;;;;0.00;0.00;;;;;;;11.32;100.00;101162.41;5873178;24;20014;-74
2024/02/18 08:51:21;;;;;;;0.00;0.00;;;;;;;11.35;100.00;101175.59;5868054;24;20110;-76
2024/02/18 08:54:21;;;;;;;0.00;0.00;;;;;;;11.21;100.00;101146.91;5951049;24;20040;-75
2024/02/18 09:04:31;;;;;;;;;;;;;;;;;;;;;
2024/02/18 09:07:21;;;;;;;;;;;;;;;;;;;;;
2024/02/18 09:13:23;;;;;;;0.00;0.00;;;;;;;11.60;100.00;101163.31;5922828;24;20008;-74
2024/02/18 09:15:51;;;;;;;0.00;0.00;;;;;;;11.90;100.00;101183.97;5966137;23;20458;-74
2024/02/18 09:18:19;;;;;;;0.00;0.00;;;;;;;12.61;100.00;101195.97;6170412;23;20031;-74
2024/02/18 09:20:44;;;;;;;0.00;0.00;;;;;;;13.44;100.00;101193.53;6249321;23;20067;-74
2024/02/18 09:23:12;;;;;;;0.00;0.00;;;;;;;14.03;100.00;101204.50;6245717;22;20841;-74
2024/02/18 09:25:41;;;;;;;0.00;0.00;;;;;;;13.27;100.00;101198.34;6247192;23;20011;-73
2024/02/18 09:28:09;;;;;;;0.00;0.00;;;;;;;12.68;100.00;101202.88;6243051;23;20099;-73
2024/02/18 09:30:38;;;;;;;0.00;0.00;;;;;;;12.67;100.00;101184.75;6222215;23;20012;-73
2024/02/18 09:33:06;;;;;;;0.00;0.00;;;;;;;13.27;100.00;101198.34;6244180;22;20014;-74
2024/02/18 09:35:33;;;;;;;0.00;0.00;;;;;;;14.46;100.00;101208.75;6245387;23;20008;-74
2024/02/18 09:38:06;;;;;;;0.00;0.00;;;;;;;14.66;100.00;101187.88;6219973;23;20008;-73
2024/02/18 09:40:32;;;;;;;0.00;0.00;;;;;;;15.59;100.00;101201.50;6242004;23;20426;-73
2024/02/18 09:42:57;;;;;;;0.00;0.00;;;;;;;16.28;100.00;101194.31;6222165;23;20012;-74
2024/02/18 09:45:28;;;;;;;0.00;0.00;;;;;;;17.13;100.00;101217.16;6243651;23;20022;-74
2024/02/18 09:47:56;;;;;;;0.00;0.00;;;;;;;17.52;100.00;101213.44;6245648;23;20004;-75
2024/02/18 09:50:22;;;;;;;0.00;0.00;;;;;;;16.92;100.00;101222.88;6242402;23;20008;-74
2024/02/18 09:52:48;;;;;;;0.00;0.00;;;;;;;15.86;100.00;101229.56;6247346;23;20384;-74
2024/02/18 09:55:14;;;;;;;0.00;0.00;;;;;;;14.90;100.00;101217.63;6242654;23;20008;-74
2024/02/18 09:57:40;;;;;;;0.00;0.00;;;;;;;16.34;100.00;101230.97;6194381;23;20225;-74
2024/02/18 10:00:09;;;;;;;0.00;0.00;;;;;;;17.41;100.00;101239.53;6220431;23;20015;-74
2024/02/18 10:02:38;;;;;;;0.00;0.00;;;;;;;17.24;100.00;101240.81;6218496;23;20613;-74
2024/02/18 10:05:04;;;;;;;0.00;0.00;;;;;;;17.33;100.00;101237.41;6245937;23;20039;-73
2024/02/18 10:07:32;;;;;;;0.00;0.00;;;;;;;17.08;100.00;101225.47;6244800;22;19992;-74
2024/02/18 10:10:03;;;;;;;0.00;0.00;;;;;;;18.05;100.00;101244.94;6248691;22;20066;-73
2024/02/18 10:12:36;;;;;;;0.00;0.00;;;;;;;18.72;100.00;101232.88;6218984;23;20335;-75
2024/02/18 10:15:04;;;;;;;0.00;0.00;;;;;;;18.90;99.70;101229.28;6245500;23;20387;-75
2024/02/18 10:17:50;;;;;;;;;;;;;;;;;;;;;
2024/02/18 10:20:18;;;;;;;0.00;0.00;;;;;;;19.10;89.83;101221.72;6246195;23;20376;-74
2024/02/18 10:22:44;;;;;;;0.00;0.00;;;;;;;19.38;88.13;101238.41;6217240;23;20004;-73
2024/02/18 10:25:10;;;;;;;0.03;0.03;;;;;;;18.69;87.71;101255.63;6219152;23;20062;-73
2024/02/18 10:27:39;;;;;;;0.00;0.00;;;;;;;18.40;90.12;101248.28;6245316;23;20057;-78
2024/02/18 10:30:07;;;;;;;0.00;0.00;;;;;;;20.02;88.24;101260.78;6239742;23;20039;-75
2024/02/18 10:32:36;;;;;;;0.10;0.10;;;;;;;20.85;78.07;101245.84;6220173;23;20031;-78
2024/02/18 10:35:05;;;;;;;0.00;0.00;;;;;;;20.12;77.86;101259.72;6241632;23;20000;-75
2024/02/18 10:37:38;;;;;;;0.00;0.00;;;;;;;19.44;78.91;101270.50;6221920;23;20335;-75
2024/02/18 10:40:48;;;;;;;0.00;0.00;;;;;;;17.91;83.34;101265.00;6243300;22;20431;-75
2024/02/18 10:43:26;;;;;;;0.00;0.00;;;;;;;18.64;83.52;101268.44;6174106;23;20063;-74
2024/02/18 10:45:53;;;;;;;0.00;0.00;;;;;;;18.94;80.09;101274.66;6246027;23;20382;-76
2024/02/18 10:48:23;;;;;;;0.00;0.00;;;;;;;17.66;83.81;101262.50;6216437;23;20023;-77
2024/02/18 10:50:49;;;;;;;0.00;0.00;;;;;;;16.97;88.34;101273.63;6246641;22;20323;-75
2024/02/18 10:53:20;;;;;;;0.00;0.00;;;;;;;16.39;94.62;101289.72;6245944;23;20000;-75
2024/02/18 10:56:05;;;;;;;0.00;0.00;;;;;;;15.50;96.28;101265.47;6242895;23;20414;-76
2024/02/18 10:59:10;;;;;;;0.00;0.00;;;;;;;15.30;100.00;101293.91;6244554;22;20040;-76
2024/02/18 11:01:49;;;;;;;0.00;0.00;;;;;;;17.19;97.75;101289.78;6248572;23;20000;-73
2024/02/18 11:04:15;;;;;;;0.00;0.00;;;;;;;18.28;85.16;101274.50;6243968;23;20004;-75
2024/02/18 11:06:49;;;;;;;0.00;0.00;;;;;;;17.92;85.63;101293.50;6247087;22;19988;-75
2024/02/18 11:09:18;;;;;;;0.00;0.00;;;;;;;18.48;84.23;101305.78;6243713;23;19984;-74
2024/02/18 11:11:45;;;;;;;0.00;0.00;;;;;;;19.07;79.60;101294.41;6243007;23;20454;-75
2024/02/18 11:14:19;;;;;;;0.00;0.00;;;;;;;19.44;78.04;101281.59;6219508;23;20012;-74
2024/02/18 11:16:49;;;;;;;0.10;0.10;;;;;;;19.85;77.56;101305.81;6246845;22;20052;-76
2024/02/18 11:19:16;;;;;;;0.00;0.00;;;;;;;21.13;71.54;101298.56;6246422;22;20011;-74
2024/02/18 11:21:47;;;;;;;0.00;0.00;;;;;;;20.44;69.68;101302.38;6246611;22;20004;-75
2024/02/18 11:24:13;;;;;;;0.00;0.00;;;;;;;19.88;75.55;101324.63;6244308;23;20008;-73
2024/02/18 11:26:39;;;;;;;0.00;0.00;;;;;;;21.02;68.89;101321.06;6241652;23;20027;-74
2024/02/18 11:29:04;;;;;;;0.00;0.00;;;;;;;22.36;64.09;101320.31;6245368;22;20304;-72
2024/02/18 11:31:32;;;;;;;0.00;0.00;;;;;;;22.80;61.19;101307.22;6243683;23;21022;-77
2024/02/18 11:33:58;;;;;;;0.00;0.00;;;;;;;22.43;60.59;101317.88;6244905;23;19996;-74
2024/02/18 11:36:29;;;;;;;0.00;0.00;;;;;;;21.45;63.24;101308.59;6241837;23;20446;-76
2024/02/18 11:38:57;;;;;;;0.00;0.00;;;;;;;19.90;64.79;101311.25;6244690;23;20004;-73
2024/02/18 11:41:31;;;;;;;0.00;0.00;;;;;;;18.59;71.00;101307.31;6243806;23;20015;-74
2024/02/18 11:44:08;;;;;;;0.00;0.00;;;;;;;18.69;72.73;101308.25;6245574;23;20007;-74
2024/02/18 11:46:41;;;;;;;0.00;0.00;;;;;;;20.11;66.73;101342.22;6243181;22;20008;-74
2024/02/18 11:49:07;;;;;;;0.00;0.00;;;;;;;22.78;57.83;101359.72;6244675;23;20003;-74
2024/02/18 11:51:33;;;;;;;0.00;0.00;;;;;;;22.14;56.37;101361.00;6243579;23;20014;-75
2024/02/18 11:53:59;;;;;;;0.00;0.00;;;;;;;21.90;58.01;101350.28;6242791;23;20011;-74
2024/02/18 11:56:24;;;;;;;0.00;0.00;;;;;;;22.40;56.74;101354.75;6220167;23;19999;-73
2024/02/18 11:58:50;;;;;;;0.00;0.00;;;;;;;20.96;57.70;101358.47;6215234;23;20037;-73
2024/02/18 12:01:19;;;;;;;0.00;0.00;;;;;;;19.84;64.03;101368.81;6217879;23;20424;-75
2024/02/18 12:03:48;;;;;;;0.00;0.00;;;;;;;18.92;67.00;101365.56;6218295;23;20004;-73
2024/02/18 12:06:14;;;;;;;0.00;0.00;;;;;;;17.84;71.97;101374.34;6218414;23;20062;-73
2024/02/18 12:08:40;;;;;;;0.00;0.00;;;;;;;17.35;75.65;101362.34;6242340;23;20315;-74
2024/02/18 12:11:06;;;;;;;0.00;0.00;;;;;;;17.20;76.58;101341.16;6216524;23;20008;-74
2024/02/18 12:13:35;;;;;;;0.00;0.00;;;;;;;17.03;77.67;101366.44;6245337;23;20000;-74
2024/02/18 12:16:03;;;;;;;0.00;0.00;;;;;;;16.49;80.36;101371.69;6217283;23;20387;-75
2024/02/18 12:18:28;;;;;;;0.00;0.00;;;;;;;15.83;81.86;101372.72;6243297;23;20078;-73
2024/02/18 12:20:55;;;;;;;0.00;0.00;;;;;;;15.49;85.54;101363.06;6244115;23;20004;-72
2024/02/18 12:23:21;;;;;;;0.00;0.00;;;;;;;15.38;87.34;101366.91;6214898;23;20012;-74
2024/02/18 12:25:48;;;;;;;0.00;0.00;;;;;;;15.23;88.38;101369.66;6245416;22;20331;-74
2024/02/18 12:28:13;;;;;;;0.00;0.00;;;;;;;15.11;88.83;101368.00;6246417;23;20698;-73
2024/02/18 12:30:39;;;;;;;0.00;0.00;;;;;;;15.14;89.41;101372.97;6223776;23;20008;-76
2024/02/18 12:33:08;;;;;;;0.00;0.00;;;;;;;15.38;88.49;101366.09;6243760;23;20011;-74
2024/02/18 12:35:35;;;;;;;0.00;0.00;;;;;;;15.65;86.99;101350.09;6245769;23;20071;-74
2024/02/18 12:38:05;;;;;;;0.00;0.00;;;;;;;15.86;84.59;101356.44;6247521;22;20000;-74
2024/02/18 12:40:31;;;;;;;0.00;0.00;;;;;;;16.11;84.26;101351.94;6246488;23;20012;-74
2024/02/18 12:43:03;;;;;;;0.00;0.00;;;;;;;16.71;81.95;101362.19;6221885;23;20008;-74
2024/02/18 12:45:29;;;;;;;0.00;0.00;;;;;;;18.52;74.23;101387.16;6248351;22;20335;-73
2024/02/18 12:47:59;;;;;;;0.00;0.00;;;;;;;19.67;67.80;101341.63;6248272;23;20000;-74
2024/02/18 12:50:28;;;;;;;0.00;0.00;;;;;;;20.54;63.70;101335.47;6220433;23;20004;-73
2024/02/18 12:52:58;;;;;;;0.00;0.00;;;;;;;23.50;55.47;101335.06;6249010;22;20000;-74
2024/02/18 12:55:25;;;;;;;0.00;0.00;;;;;;;26.47;45.90;101356.22;6245131;23;20035;-73
2024/02/18 12:57:52;;;;;;;0.00;0.00;;;;;;;29.39;40.27;101356.06;6220325;23;20035;-76
2024/02/18 13:00:18;;;;;;;0.00;0.00;;;;;;;30.32;36.27;101372.19;6247738;23;20407;-74
2024/02/18 13:02:44;;;;;;;0.00;0.00;;;;;;;30.41;36.95;101367.94;6244293;23;20053;-74
2024/02/18 13:05:15;;;;;;;0.00;0.00;;;;;;;32.02;36.18;101387.22;6246314;23;20004;-75
2024/02/18 13:08:04;;;;;;;0.00;0.00;;;;;;;35.15;32.12;101358.75;6221998;23;20012;-74
2024/02/18 13:10:29;;;;;;;0.00;0.00;;;;;;;36.50;27.35;101377.25;6246579;23;20000;-74
2024/02/18 13:12:55;;;;;;;0.00;0.00;;;;;;;34.27;30.03;101367.91;6218954;23;20185;-75
2024/02/18 13:15:20;;;;;;;0.00;0.00;;;;;;;31.88;35.46;101365.28;6172840;23;20091;-74
2024/02/18 13:17:51;;;;;;;0.00;0.00;;;;;;;32.02;35.77;101364.59;6193870;23;20020;-77
2024/02/18 13:20:17;;;;;;;0.00;0.00;;;;;;;32.06;33.68;101362.59;6222702;23;20008;-74
2024/02/18 13:22:46;;;;;;;0.00;0.00;;;;;;;32.67;34.37;101365.09;6219025;23;20008;-74